createdAt,value
2022-11-09T04:46:16.493Z,11.80
2022-11-09T04:48:44.385Z,11.90
2022-11-09T04:51:11.615Z,11.90
2022-11-09T04:53:39.096Z,12.00
2022-11-09T04:56:06.535Z,12.00
2022-11-09T04:58:34.026Z,12.00
2022-11-09T05:01:08.148Z,12.20
2022-11-09T05:03:35.230Z,12.10
2022-11-09T05:06:22.419Z,12.10
2022-11-09T05:08:49.588Z,12.10
2022-11-09T05:11:16.659Z,12.10
2022-11-09T05:13:43.821Z,12.00
2022-11-09T05:16:10.900Z,12.10
2022-11-09T05:18:37.923Z,12.10
2022-11-09T05:21:04.912Z,12.10
2022-11-09T05:23:50.384Z,12.10
2022-11-09T05:26:17.314Z,12.10
2022-11-09T05:28:44.940Z,12.10
2022-11-09T05:31:12.117Z,12.10
2022-11-09T05:33:39.096Z,12.20
2022-11-09T05:36:06.198Z,12.20
2022-11-09T05:38:33.168Z,12.10
2022-11-09T05:41:00.149Z,12.10
2022-11-09T05:43:27.085Z,12.10
2022-11-09T05:45:54.036Z,12.00
2022-11-09T05:48:21.006Z,12.10
2022-11-09T05:50:48.008Z,12.30
2022-11-09T05:53:14.936Z,12.10
2022-11-09T05:55:41.909Z,12.10
2022-11-09T05:58:09.405Z,12.00
2022-11-09T06:00:36.651Z,12.00
2022-11-09T06:03:04.325Z,12.00
2022-11-09T06:05:35.360Z,12.00
2022-11-09T06:08:06.364Z,12.10
2022-11-09T06:10:33.349Z,12.10
2022-11-09T06:13:00.369Z,12.10
2022-11-09T06:15:27.517Z,12.10
2022-11-09T06:17:55.367Z,12.00
2022-11-09T06:20:22.980Z,12.10
2022-11-09T06:22:56.524Z,12.10
2022-11-09T06:25:25.891Z,12.10
2022-11-09T06:27:56.108Z,12.10
2022-11-09T06:30:23.218Z,12.20
2022-11-09T06:32:50.153Z,12.20
2022-11-09T06:35:17.193Z,12.20
2022-11-09T06:37:44.462Z,12.20
2022-11-09T06:40:12.646Z,12.20
2022-11-09T06:42:39.664Z,12.30
2022-11-09T06:45:06.912Z,12.40
2022-11-09T06:47:33.839Z,12.30
2022-11-09T06:50:00.766Z,12.30
2022-11-09T06:52:27.718Z,12.30
2022-11-09T06:54:54.660Z,12.30
2022-11-09T06:57:21.610Z,12.30
2022-11-09T06:59:48.713Z,12.40
2022-11-09T07:02:17.686Z,12.40
2022-11-09T07:04:44.634Z,12.40
2022-11-09T07:07:11.872Z,12.50
2022-11-09T07:09:39.032Z,12.50
2022-11-09T07:12:06.044Z,12.50
2022-11-09T07:14:33.052Z,12.60
2022-11-09T07:17:00.041Z,12.60
2022-11-09T07:19:28.212Z,12.60
2022-11-09T07:21:55.737Z,12.70
2022-11-09T07:24:22.963Z,12.70
2022-11-09T07:26:50.193Z,12.70
2022-11-09T07:29:17.150Z,12.80
2022-11-09T07:31:44.120Z,12.80
2022-11-09T07:34:11.104Z,12.80
2022-11-09T07:36:38.464Z,12.80
2022-11-09T07:39:05.484Z,12.80
2022-11-09T07:41:34.895Z,12.90
2022-11-09T07:44:02.050Z,12.90
2022-11-09T07:46:29.025Z,12.90
2022-11-09T07:48:55.944Z,13.00
2022-11-09T07:51:22.872Z,13.00
2022-11-09T07:53:49.998Z,13.00
2022-11-09T07:56:18.020Z,12.90
2022-11-09T07:58:45.018Z,13.00
2022-11-09T08:01:12.153Z,13.10
2022-11-09T08:03:39.140Z,13.20
2022-11-09T08:06:06.123Z,13.20
2022-11-09T08:08:33.061Z,13.20
2022-11-09T08:11:00.008Z,13.20
2022-11-09T08:13:26.961Z,13.20
2022-11-09T08:15:53.962Z,13.30
2022-11-09T08:18:21.970Z,13.30
2022-11-09T08:20:49.631Z,13.40
2022-11-09T08:23:17.864Z,13.40
2022-11-09T08:25:44.940Z,13.40
2022-11-09T08:28:15.054Z,13.40
2022-11-09T08:30:42.966Z,13.50
2022-11-09T08:33:09.953Z,13.50
2022-11-09T08:35:36.921Z,13.50
2022-11-09T08:38:05.217Z,13.50
2022-11-09T08:40:32.856Z,13.60
2022-11-09T08:43:03.809Z,13.60
2022-11-09T08:45:34.517Z,13.60
2022-11-09T08:48:01.912Z,13.70
2022-11-09T08:50:29.360Z,13.60
2022-11-09T08:52:56.502Z,13.70
2022-11-09T08:55:23.973Z,13.70
2022-11-09T08:57:53.550Z,13.80
2022-11-09T09:00:20.532Z,13.70
2022-11-09T09:02:47.452Z,13.70
2022-11-09T09:05:14.740Z,13.70
2022-11-09T09:07:42.051Z,13.70
2022-11-09T09:10:09.104Z,13.70
2022-11-09T09:12:36.253Z,13.70
2022-11-09T09:15:03.334Z,13.70
2022-11-09T09:17:30.429Z,13.70
2022-11-09T09:19:57.426Z,13.70
2022-11-09T09:22:24.595Z,13.80
2022-11-09T09:24:51.558Z,13.80
2022-11-09T09:27:18.570Z,13.80
2022-11-09T09:29:45.492Z,13.80
2022-11-09T09:32:12.427Z,13.90
2022-11-09T09:34:39.382Z,13.90
2022-11-09T09:37:06.313Z,13.90
2022-11-09T09:39:33.264Z,13.90
2022-11-09T09:42:02.202Z,14.00
2022-11-09T09:44:34.536Z,14.00
2022-11-09T09:47:07.857Z,14.00
2022-11-09T09:49:37.020Z,14.10
2022-11-09T09:52:07.037Z,14.10
2022-11-09T09:54:39.146Z,14.10
2022-11-09T09:57:13.021Z,14.10
2022-11-09T09:59:44.194Z,14.20
2022-11-09T10:02:20.837Z,14.30
2022-11-09T10:04:47.988Z,14.30
2022-11-09T10:07:33.686Z,14.40
2022-11-09T10:10:21.089Z,14.40
2022-11-09T10:12:54.181Z,14.50
2022-11-09T10:15:33.567Z,14.50
2022-11-09T10:18:16.527Z,14.60
2022-11-09T10:20:52.805Z,14.50
2022-11-09T10:23:55.482Z,14.60
2022-11-09T10:26:29.673Z,14.60
2022-11-09T10:29:16.935Z,14.60
2022-11-09T10:31:45.498Z,14.60
2022-11-09T10:34:21.415Z,14.60
2022-11-09T10:36:51.380Z,14.70
2022-11-09T10:39:19.699Z,14.70
2022-11-09T10:41:47.021Z,14.60
2022-11-09T10:44:17.596Z,14.70
2022-11-09T10:47:03.476Z,14.70
2022-11-09T10:49:30.447Z,14.70
2022-11-09T10:51:57.401Z,14.70
2022-11-09T10:54:27.538Z,14.70
2022-11-09T10:57:06.976Z,14.80
2022-11-09T10:59:37.095Z,14.80
2022-11-09T11:02:24.022Z,14.80
2022-11-09T11:04:51.873Z,14.80
2022-11-09T11:07:21.398Z,14.80
2022-11-09T11:09:48.566Z,14.80
2022-11-09T11:12:16.653Z,14.80
2022-11-09T11:14:44.535Z,14.80
2022-11-09T11:17:25.414Z,14.90
2022-11-09T11:19:52.405Z,15.00
2022-11-09T11:22:22.925Z,14.90
2022-11-09T11:24:54.347Z,15.00
2022-11-09T11:27:24.021Z,15.00
2022-11-09T11:30:10.584Z,15.00
2022-11-09T11:32:37.672Z,15.00
2022-11-09T11:35:11.453Z,15.10
2022-11-09T11:37:48.186Z,15.10
2022-11-09T11:40:33.409Z,15.10
2022-11-09T11:43:06.616Z,15.10
2022-11-09T11:45:41.167Z,15.10
2022-11-09T11:48:08.866Z,15.20
2022-11-09T11:50:54.720Z,15.20
2022-11-09T11:53:30.736Z,15.20
2022-11-09T11:55:57.945Z,15.30
2022-11-09T11:58:27.726Z,15.30
2022-11-09T12:01:12.496Z,15.30
2022-11-09T12:04:11.669Z,15.30
2022-11-09T12:06:50.572Z,15.30
2022-11-09T12:09:34.314Z,15.30
2022-11-09T12:12:21.492Z,15.40
2022-11-09T12:14:57.873Z,15.40
2022-11-09T12:17:27.617Z,15.50
2022-11-09T12:20:07.002Z,15.50
2022-11-09T12:22:39.499Z,15.50
2022-11-09T12:25:21.571Z,15.50
2022-11-09T12:27:56.470Z,15.50
2022-11-09T12:30:26.174Z,15.60
2022-11-09T12:32:58.133Z,15.60
2022-11-09T12:35:40.215Z,15.60
2022-11-09T12:38:15.592Z,15.70
2022-11-09T12:40:52.092Z,15.70
2022-11-09T12:43:33.192Z,15.70
2022-11-09T12:46:01.619Z,15.70
2022-11-09T12:48:30.874Z,15.80
2022-11-09T12:51:01.521Z,15.80
2022-11-09T12:53:30.183Z,15.80
2022-11-09T12:56:02.807Z,15.80
2022-11-09T12:58:33.368Z,15.80
2022-11-09T13:01:06.136Z,15.80
2022-11-09T13:03:34.730Z,15.80
2022-11-09T13:06:10.793Z,15.80
2022-11-09T13:08:38.703Z,15.80
2022-11-09T13:11:11.603Z,15.80
2022-11-09T13:13:38.670Z,15.80
2022-11-09T13:16:12.877Z,15.80
2022-11-09T13:18:44.391Z,15.80
2022-11-09T13:21:21.485Z,15.70
2022-11-09T13:24:01.934Z,15.70
2022-11-09T13:26:32.342Z,15.70
2022-11-09T13:29:22.412Z,15.80
2022-11-09T13:32:04.734Z,15.80
2022-11-09T13:34:48.177Z,15.70
2022-11-09T13:37:33.680Z,15.70
2022-11-09T13:40:00.722Z,15.70
2022-11-09T13:42:28.824Z,15.70
2022-11-09T13:45:15.736Z,15.60
2022-11-09T13:47:49.710Z,15.60
2022-11-09T13:50:18.336Z,15.60
2022-11-09T13:52:52.695Z,15.60
2022-11-09T13:55:41.758Z,15.60
2022-11-09T13:58:17.807Z,15.60
2022-11-09T14:00:45.497Z,15.60
2022-11-09T14:03:29.076Z,15.50
2022-11-09T14:05:57.737Z,15.50
2022-11-09T14:08:25.883Z,15.50
2022-11-09T14:10:55.915Z,15.50
2022-11-09T14:13:46.009Z,15.50
2022-11-09T14:16:25.957Z,15.60
2022-11-09T14:18:59.295Z,15.60
2022-11-09T14:21:55.414Z,15.60
2022-11-09T14:24:28.213Z,15.50
2022-11-09T14:27:10.309Z,15.50
2022-11-09T14:29:46.279Z,15.50
2022-11-09T14:32:36.266Z,15.50
2022-11-09T14:35:10.476Z,15.40
2022-11-09T14:37:37.544Z,15.50
2022-11-09T14:40:04.793Z,15.50
2022-11-09T14:42:32.332Z,15.40
2022-11-09T14:44:59.613Z,15.40
2022-11-09T14:47:33.504Z,15.40
2022-11-09T14:50:00.701Z,15.50
2022-11-09T14:52:28.817Z,15.50
2022-11-09T14:54:56.434Z,15.50
2022-11-09T14:57:24.004Z,15.40
2022-11-09T14:59:51.037Z,15.40
2022-11-09T15:02:19.578Z,15.40
2022-11-09T15:04:56.708Z,15.40
2022-11-09T15:07:25.721Z,15.40
2022-11-09T15:09:57.517Z,15.40
2022-11-09T15:12:24.928Z,15.40
2022-11-09T15:15:01.481Z,15.40
2022-11-09T15:17:38.440Z,15.40
2022-11-09T15:20:08.377Z,15.40
2022-11-09T15:22:46.612Z,15.40
2022-11-09T15:25:19.437Z,15.30
2022-11-09T15:27:56.409Z,15.30
2022-11-09T15:30:35.320Z,15.30
2022-11-09T15:33:25.144Z,15.30
2022-11-09T15:35:54.955Z,15.30
2022-11-09T15:38:37.036Z,15.30
2022-11-09T15:41:09.300Z,15.30
2022-11-09T15:43:36.783Z,15.30
2022-11-09T15:46:03.930Z,15.30
2022-11-09T15:48:31.189Z,15.20
2022-11-09T15:50:58.189Z,15.20
2022-11-09T15:53:25.235Z,15.20
2022-11-09T15:55:52.538Z,15.20
2022-11-09T15:58:20.029Z,15.30
2022-11-09T16:00:48.876Z,15.30
2022-11-09T16:03:17.804Z,15.30
2022-11-09T16:05:44.983Z,15.30
2022-11-09T16:08:12.035Z,15.20
2022-11-09T16:10:40.231Z,15.20
2022-11-09T16:13:07.827Z,15.20
2022-11-09T16:15:35.525Z,15.20
2022-11-09T16:18:02.575Z,15.10
2022-11-09T16:20:29.606Z,15.10
2022-11-09T16:22:56.536Z,15.20
2022-11-09T16:25:23.515Z,15.20
2022-11-09T16:27:51.416Z,15.10
2022-11-09T16:30:19.237Z,15.20
2022-11-09T16:32:46.195Z,15.20
2022-11-09T16:35:29.031Z,15.10
2022-11-09T16:37:57.940Z,15.10
2022-11-09T16:40:25.834Z,15.00
2022-11-09T16:42:52.792Z,15.00
2022-11-09T16:45:20.288Z,15.00
2022-11-09T16:47:51.992Z,15.00
2022-11-09T16:50:19.112Z,14.90
2022-11-09T16:52:46.027Z,14.90
2022-11-09T16:55:13.048Z,14.90
2022-11-09T16:57:40.112Z,14.90
2022-11-09T17:00:07.765Z,15.00
2022-11-09T17:02:34.998Z,15.00
2022-11-09T17:05:02.056Z,15.00
2022-11-09T17:07:29.348Z,15.00
2022-11-09T17:09:56.286Z,14.90
2022-11-09T17:12:23.297Z,15.00
2022-11-09T17:14:50.339Z,15.00
2022-11-09T17:17:22.476Z,14.90
2022-11-09T17:19:49.964Z,14.90
2022-11-09T17:22:17.339Z,15.00
2022-11-09T17:24:44.368Z,15.00
2022-11-09T17:27:11.636Z,14.90
2022-11-09T17:29:38.789Z,14.90
2022-11-09T17:32:07.042Z,15.00
2022-11-09T17:34:34.205Z,15.00
2022-11-09T17:37:04.750Z,15.00
2022-11-09T17:39:33.072Z,15.00
2022-11-09T17:42:00.042Z,14.90
2022-11-09T17:44:27.053Z,14.90
2022-11-09T17:46:54.008Z,14.90
2022-11-09T17:49:20.964Z,14.90
2022-11-09T17:51:47.892Z,14.80
2022-11-09T17:54:15.011Z,14.80
2022-11-09T17:56:42.252Z,14.90
2022-11-09T17:59:09.259Z,14.80
2022-11-09T18:01:41.548Z,14.90
2022-11-09T18:04:09.891Z,14.80
2022-11-09T18:06:37.299Z,14.80
2022-11-09T18:09:39.210Z,14.90
2022-11-09T18:11:51.238Z,14.80
2022-11-09T18:14:18.321Z,14.80
2022-11-09T18:16:45.358Z,14.80
2022-11-09T18:19:12.576Z,14.80
2022-11-09T18:21:39.507Z,14.80
2022-11-09T18:24:06.736Z,14.90
2022-11-09T18:26:34.221Z,14.90
2022-11-09T18:29:01.273Z,14.90
2022-11-09T18:31:28.300Z,14.80
2022-11-09T18:33:55.240Z,14.80
2022-11-09T18:36:23.462Z,14.80
2022-11-09T18:38:51.953Z,14.80
2022-11-09T18:41:20.578Z,14.80
2022-11-09T18:43:47.989Z,14.90
2022-11-09T18:46:15.836Z,14.90
2022-11-09T18:48:42.964Z,14.90
2022-11-09T18:51:10.636Z,14.90
2022-11-09T18:53:41.571Z,14.90
2022-11-09T18:56:11.040Z,14.80
2022-11-09T18:58:38.166Z,14.80
2022-11-09T19:01:05.847Z,14.80
2022-11-09T19:03:32.869Z,14.90
2022-11-09T19:06:03.546Z,14.90
2022-11-09T19:08:48.983Z,14.80
2022-11-09T19:11:15.917Z,14.80
2022-11-09T19:13:42.892Z,14.80
2022-11-09T19:16:11.271Z,14.80
2022-11-09T19:18:38.208Z,14.80
2022-11-09T19:21:05.293Z,14.90
2022-11-09T19:23:34.708Z,14.90
2022-11-09T19:26:02.259Z,14.80
2022-11-09T19:28:29.272Z,14.90
2022-11-09T19:30:57.072Z,14.90
2022-11-09T19:33:23.995Z,14.90
2022-11-09T19:36:15.288Z,14.80
2022-11-09T19:38:38.886Z,14.80
2022-11-09T19:41:06.546Z,14.80
2022-11-09T19:43:33.729Z,14.80
2022-11-09T19:46:03.037Z,14.80
2022-11-09T19:48:32.027Z,14.70
2022-11-09T19:50:58.963Z,14.70
2022-11-09T19:53:26.702Z,14.70
2022-11-09T19:56:08.631Z,14.70
2022-11-09T19:58:35.932Z,14.70
2022-11-09T20:01:09.702Z,14.70
2022-11-09T20:03:36.847Z,14.80
2022-11-09T20:06:04.888Z,14.80
2022-11-09T20:08:32.493Z,14.80
2022-11-09T20:11:12.687Z,14.80
2022-11-09T20:13:40.503Z,14.80
2022-11-09T20:16:08.703Z,14.80
2022-11-09T20:18:36.411Z,14.80
2022-11-09T20:21:03.821Z,14.90
2022-11-09T20:23:30.761Z,14.90
2022-11-09T20:26:05.343Z,14.90
2022-11-09T20:28:32.304Z,14.90
2022-11-09T20:30:59.285Z,14.90
2022-11-09T20:33:26.314Z,14.90
2022-11-09T20:35:53.773Z,14.90
2022-11-09T20:38:21.262Z,14.90
2022-11-09T20:40:55.555Z,14.90
2022-11-09T20:43:23.001Z,14.90
2022-11-09T20:45:50.197Z,14.90
2022-11-09T20:48:38.588Z,14.90
2022-11-09T20:51:08.024Z,14.90
2022-11-09T20:53:35.298Z,14.90
2022-11-09T20:56:02.311Z,14.90
2022-11-09T20:58:29.346Z,14.90
2022-11-09T21:01:00.047Z,14.90
2022-11-09T21:03:27.041Z,14.90
2022-11-09T21:05:58.826Z,14.90
2022-11-09T21:08:26.606Z,14.90
2022-11-09T21:10:53.958Z,15.00
2022-11-09T21:13:21.102Z,15.00
2022-11-09T21:15:48.496Z,15.00
2022-11-09T21:18:15.450Z,15.00
2022-11-09T21:20:42.512Z,14.90
2022-11-09T21:23:13.200Z,15.00
2022-11-09T21:25:59.109Z,14.90
2022-11-09T21:28:45.212Z,14.90
2022-11-09T21:31:12.624Z,14.90
2022-11-09T21:33:39.972Z,14.90
2022-11-09T21:36:07.876Z,14.90
2022-11-09T21:38:34.892Z,14.90
2022-11-09T21:41:22.358Z,14.90
2022-11-09T21:43:52.342Z,14.90
2022-11-09T21:46:19.386Z,14.90
2022-11-09T21:48:46.327Z,14.90
2022-11-09T21:51:13.256Z,14.90
2022-11-09T21:53:40.300Z,14.90
2022-11-09T21:56:07.470Z,14.90
2022-11-09T21:58:34.462Z,14.90
2022-11-09T22:01:01.869Z,15.00
2022-11-09T22:03:29.226Z,14.90
2022-11-09T22:05:56.154Z,14.90
2022-11-09T22:08:23.411Z,14.80
2022-11-09T22:10:50.502Z,14.80
2022-11-09T22:13:36.004Z,14.90
2022-11-09T22:16:06.319Z,14.90
2022-11-09T22:18:55.210Z,15.00
2022-11-09T22:21:22.976Z,15.00
2022-11-09T22:23:50.220Z,15.00
2022-11-09T22:26:17.915Z,15.00
2022-11-09T22:28:45.473Z,15.00
2022-11-09T22:31:13.839Z,15.00
2022-11-09T22:33:40.820Z,15.00
2022-11-09T22:36:09.599Z,15.00
2022-11-09T22:38:36.643Z,15.00
2022-11-09T22:41:04.917Z,15.00
2022-11-09T22:43:35.292Z,15.00
2022-11-09T22:46:03.566Z,15.00
2022-11-09T22:48:33.670Z,15.00
2022-11-09T22:51:00.969Z,14.90
2022-11-09T22:53:28.136Z,14.90
2022-11-09T22:55:56.061Z,14.90
2022-11-09T22:58:23.820Z,15.00
2022-11-09T23:00:51.145Z,14.90
2022-11-09T23:03:18.532Z,14.90
2022-11-09T23:05:46.152Z,14.90
2022-11-09T23:08:13.097Z,14.90
2022-11-09T23:10:40.093Z,14.90
2022-11-09T23:13:07.059Z,14.90
2022-11-09T23:15:34.020Z,14.90
2022-11-09T23:18:27.146Z,14.80
2022-11-09T23:20:54.106Z,14.80
2022-11-09T23:23:21.416Z,14.80
2022-11-09T23:25:54.399Z,14.80
2022-11-09T23:28:21.316Z,14.80
2022-11-09T23:30:48.301Z,14.70
2022-11-09T23:33:15.269Z,14.80
2022-11-09T23:35:42.206Z,14.70
2022-11-09T23:38:09.386Z,14.80
2022-11-09T23:40:36.401Z,14.80
2022-11-09T23:43:07.340Z,14.70
2022-11-09T23:45:34.882Z,14.80
2022-11-09T23:48:02.025Z,14.80
2022-11-09T23:50:29.259Z,14.80
2022-11-09T23:52:57.981Z,14.80
2022-11-09T23:55:25.807Z,14.70
2022-11-09T23:57:53.185Z,14.70
